createdAt,value
2023-04-17T00:01:39.340Z,65.51
2023-04-17T00:04:07.164Z,65.59
2023-04-17T00:06:33.620Z,65.58
2023-04-17T00:09:00.102Z,65.53
2023-04-17T00:11:26.805Z,65.69
2023-04-17T00:13:53.106Z,65.64
2023-04-17T00:16:19.487Z,65.30
2023-04-17T00:18:45.894Z,65.81
2023-04-17T00:21:12.205Z,65.68
2023-04-17T00:23:38.615Z,65.42
2023-04-17T00:26:04.955Z,65.59
2023-04-17T00:28:31.286Z,65.75
2023-04-17T00:30:57.621Z,65.69
2023-04-17T00:33:24.018Z,65.82
2023-04-17T00:35:50.516Z,65.57
2023-04-17T00:38:17.439Z,65.77
2023-04-17T00:40:43.886Z,65.81
2023-04-17T00:43:10.529Z,65.72
2023-04-17T00:45:37.238Z,65.61
2023-04-17T00:48:03.635Z,65.91
2023-04-17T00:50:30.332Z,65.75
2023-04-17T00:52:57.238Z,65.65
2023-04-17T00:55:23.587Z,65.51
2023-04-17T00:57:49.990Z,65.65
2023-04-17T01:00:16.500Z,65.69
2023-04-17T01:02:43.261Z,65.83
2023-04-17T01:05:10.605Z,65.70
2023-04-17T01:07:38.463Z,65.65
2023-04-17T01:10:05.130Z,65.53
2023-04-17T01:12:32.114Z,65.78
2023-04-17T01:14:58.884Z,65.51
2023-04-17T01:17:25.284Z,65.42
2023-04-17T01:19:52.218Z,65.57
2023-04-17T01:22:18.596Z,65.45
2023-04-17T01:24:44.968Z,65.59
2023-04-17T01:27:11.431Z,65.24
2023-04-17T01:29:38.028Z,65.85
2023-04-17T01:32:04.638Z,65.53
2023-04-17T01:34:31.078Z,65.65
2023-04-17T01:36:57.434Z,65.80
2023-04-17T01:39:23.988Z,65.60
2023-04-17T01:41:50.375Z,65.87
2023-04-17T01:44:16.744Z,65.43
2023-04-17T01:46:43.380Z,65.81
2023-04-17T01:49:10.111Z,65.57
2023-04-17T01:51:36.778Z,65.60
2023-04-17T01:54:03.374Z,65.85
2023-04-17T01:56:29.762Z,65.47
2023-04-17T01:58:56.134Z,65.24
2023-04-17T02:01:22.695Z,65.45
2023-04-17T02:03:49.674Z,65.74
2023-04-17T02:06:16.160Z,65.42
2023-04-17T02:08:42.491Z,65.53
2023-04-17T02:11:09.068Z,65.63
2023-04-17T02:13:35.559Z,65.46
2023-04-17T02:16:02.398Z,65.40
2023-04-17T02:18:29.035Z,65.83
2023-04-17T02:20:55.428Z,65.78
2023-04-17T02:23:21.796Z,65.92
2023-04-17T02:25:48.394Z,65.88
2023-04-17T02:28:15.460Z,65.70
2023-04-17T02:30:41.916Z,65.58
2023-04-17T02:33:08.478Z,65.49
2023-04-17T02:35:34.977Z,65.58
2023-04-17T02:38:01.731Z,65.40
2023-04-17T02:40:28.169Z,65.46
2023-04-17T02:42:54.770Z,65.88
2023-04-17T02:45:21.193Z,65.36
2023-04-17T02:47:47.723Z,65.87
2023-04-17T02:50:14.536Z,65.75
2023-04-17T02:52:41.366Z,65.55
2023-04-17T02:55:07.688Z,65.69
2023-04-17T02:57:34.060Z,65.65
2023-04-17T03:00:00.426Z,65.43
2023-04-17T03:02:27.621Z,65.88
2023-04-17T03:04:54.080Z,65.40
2023-04-17T03:07:20.610Z,65.48
2023-04-17T03:09:47.651Z,65.56
2023-04-17T03:12:14.263Z,65.69
2023-04-17T03:14:40.633Z,65.39
2023-04-17T03:17:07.364Z,65.59
2023-04-17T03:19:34.412Z,65.53
2023-04-17T03:22:00.789Z,65.60
2023-04-17T03:24:27.964Z,65.26
2023-04-17T03:26:54.319Z,65.50
2023-04-17T03:29:20.625Z,65.58
2023-04-17T03:31:47.202Z,65.21
2023-04-17T03:34:13.730Z,65.21
2023-04-17T03:36:40.170Z,65.44
2023-04-17T03:39:06.580Z,65.54
2023-04-17T03:41:32.989Z,65.21
2023-04-17T03:43:59.293Z,65.63
2023-04-17T03:46:25.691Z,65.49
2023-04-17T03:48:52.047Z,65.66
2023-04-17T03:51:18.658Z,65.30
2023-04-17T03:53:45.039Z,65.50
2023-04-17T03:56:11.487Z,65.40
2023-04-17T03:58:37.882Z,65.20
2023-04-17T04:01:04.166Z,65.52
2023-04-17T04:03:30.745Z,64.97
2023-04-17T04:05:57.261Z,65.18
2023-04-17T04:08:23.581Z,65.26
2023-04-17T04:10:50.014Z,65.64
2023-04-17T04:13:16.327Z,65.66
2023-04-17T04:15:43.161Z,65.60
2023-04-17T04:18:09.788Z,65.43
2023-04-17T04:20:36.221Z,65.44
2023-04-17T04:23:02.908Z,65.39
2023-04-17T04:25:29.639Z,65.51
2023-04-17T04:27:56.023Z,65.60
2023-04-17T04:30:22.534Z,65.38
2023-04-17T04:32:48.848Z,65.40
2023-04-17T04:35:15.236Z,65.65
2023-04-17T04:37:41.894Z,65.65
2023-04-17T04:40:08.270Z,65.40
2023-04-17T04:42:35.182Z,65.56
2023-04-17T04:45:01.846Z,65.24
2023-04-17T04:47:28.306Z,65.35
2023-04-17T04:49:55.061Z,65.46
2023-04-17T04:52:21.445Z,65.36
2023-04-17T04:54:47.802Z,65.04
2023-04-17T04:57:14.105Z,65.19
2023-04-17T04:59:40.867Z,65.38
2023-04-17T05:02:08.074Z,65.18
2023-04-17T05:04:34.654Z,65.38
2023-04-17T05:07:01.124Z,65.61
2023-04-17T05:09:27.474Z,65.26
2023-04-17T05:11:53.925Z,65.61
2023-04-17T05:14:20.291Z,65.14
2023-04-17T05:16:46.709Z,65.35
2023-04-17T05:19:13.490Z,65.38
2023-04-17T05:21:40.278Z,65.25
2023-04-17T05:24:06.683Z,65.14
2023-04-17T05:26:33.621Z,64.98
2023-04-17T05:28:59.962Z,65.35
2023-04-17T05:31:26.403Z,65.29
2023-04-17T05:33:52.840Z,65.50
2023-04-17T05:36:19.356Z,65.61
2023-04-17T05:38:46.387Z,65.47
2023-04-17T05:41:12.907Z,65.69
2023-04-17T05:43:39.438Z,65.60
2023-04-17T05:46:05.921Z,65.39
2023-04-17T05:48:32.421Z,65.71
2023-04-17T05:50:58.766Z,65.81
2023-04-17T05:53:25.594Z,65.56
2023-04-17T05:55:52.021Z,65.64
2023-04-17T05:58:23.526Z,65.62
2023-04-17T06:00:50.737Z,65.91
2023-04-17T06:03:18.335Z,65.57
2023-04-17T06:05:45.358Z,65.19
2023-04-17T06:08:11.709Z,64.89
2023-04-17T06:10:38.081Z,64.48
2023-04-17T06:13:05.058Z,65.17
2023-04-17T06:15:31.399Z,65.44
2023-04-17T06:17:57.775Z,65.49
2023-04-17T06:20:24.239Z,65.68
2023-04-17T06:22:50.607Z,65.62
2023-04-17T06:25:17.686Z,65.94
2023-04-17T06:27:44.163Z,65.77
2023-04-17T06:30:10.719Z,65.76
2023-04-17T06:32:37.354Z,65.69
2023-04-17T06:35:04.293Z,65.76
2023-04-17T06:37:30.588Z,65.38
2023-04-17T06:39:56.996Z,64.95
2023-04-17T06:42:23.294Z,65.25
2023-04-17T06:44:49.816Z,65.73
2023-04-17T06:47:16.155Z,65.93
2023-04-17T06:49:43.045Z,65.96
2023-04-17T06:52:09.708Z,65.63
2023-04-17T06:54:36.032Z,65.75
2023-04-17T06:57:02.501Z,66.12
2023-04-17T06:59:28.963Z,65.71
2023-04-17T07:01:55.625Z,66.12
2023-04-17T07:04:22.127Z,65.92
2023-04-17T07:06:48.546Z,66.27
2023-04-17T07:09:15.279Z,66.09
2023-04-17T07:11:41.720Z,66.08
2023-04-17T07:14:09.098Z,66.03
2023-04-17T07:16:36.257Z,65.84
2023-04-17T07:19:03.133Z,66.19
2023-04-17T07:21:29.469Z,65.90
2023-04-17T07:23:56.062Z,65.76
2023-04-17T07:26:22.474Z,64.91
2023-04-17T07:28:48.960Z,65.69
2023-04-17T07:31:15.855Z,65.79
2023-04-17T07:33:42.237Z,65.87
2023-04-17T07:36:08.810Z,65.75
2023-04-17T07:38:35.121Z,65.93
2023-04-17T07:41:01.516Z,66.09
2023-04-17T07:43:28.023Z,65.92
2023-04-17T07:45:54.886Z,66.02
2023-04-17T07:48:21.186Z,65.96
2023-04-17T07:50:47.559Z,65.97
2023-04-17T07:53:14.575Z,65.45
2023-04-17T07:55:40.869Z,65.32
2023-04-17T07:58:07.200Z,64.75
2023-04-17T08:00:34.047Z,64.07
2023-04-17T08:03:01.223Z,63.60
2023-04-17T08:05:27.869Z,63.60
2023-04-17T08:07:55.188Z,63.22
2023-04-17T08:10:21.554Z,63.35
2023-04-17T08:12:48.458Z,63.50
2023-04-17T08:15:14.752Z,63.83
2023-04-17T08:17:41.424Z,63.55
2023-04-17T08:20:07.765Z,63.51
2023-04-17T08:22:34.766Z,63.62
2023-04-17T08:25:01.307Z,63.68
2023-04-17T08:27:28.146Z,63.66
2023-04-17T08:29:54.588Z,63.37
2023-04-17T08:32:21.040Z,63.56
2023-04-17T08:34:47.421Z,63.38
2023-04-17T08:37:14.467Z,63.26
2023-04-17T08:39:41.023Z,63.04
2023-04-17T08:42:08.008Z,63.26
2023-04-17T08:44:34.436Z,63.34
2023-04-17T08:47:01.119Z,63.31
2023-04-17T08:49:27.476Z,62.89
2023-04-17T08:51:53.887Z,62.91
2023-04-17T08:54:20.438Z,62.88
2023-04-17T08:56:46.790Z,62.96
2023-04-17T08:59:13.407Z,62.17
2023-04-17T09:01:39.931Z,62.12
2023-04-17T09:04:06.706Z,62.58
2023-04-17T09:06:33.436Z,62.90
2023-04-17T09:08:59.882Z,62.82
2023-04-17T09:11:26.295Z,62.31
2023-04-17T09:13:52.741Z,62.37
2023-04-17T09:16:19.193Z,62.08
2023-04-17T09:18:45.656Z,62.53
2023-04-17T09:21:12.076Z,62.02
2023-04-17T09:23:38.456Z,62.42
2023-04-17T09:26:05.206Z,62.46
2023-04-17T09:28:31.556Z,62.25
2023-04-17T09:30:57.984Z,62.58
2023-04-17T09:33:24.435Z,62.42
2023-04-17T09:35:51.146Z,62.51
2023-04-17T09:38:17.916Z,62.26
2023-04-17T09:40:44.280Z,62.75
2023-04-17T09:43:10.907Z,62.55
2023-04-17T09:45:37.366Z,63.07
2023-04-17T09:48:03.767Z,63.73
2023-04-17T09:50:30.268Z,62.94
2023-04-17T09:52:56.854Z,63.36
2023-04-17T09:55:23.336Z,63.44
2023-04-17T09:57:49.692Z,63.10
2023-04-17T10:00:16.517Z,63.65
2023-04-17T10:02:43.118Z,64.16
2023-04-17T10:05:09.711Z,64.24
2023-04-17T10:07:36.075Z,64.25
2023-04-17T10:10:02.409Z,64.33
2023-04-17T10:12:29.016Z,64.50
2023-04-17T10:14:55.935Z,64.35
2023-04-17T10:17:22.804Z,64.43
2023-04-17T10:19:49.276Z,64.24
2023-04-17T10:22:15.871Z,64.57
2023-04-17T10:24:42.324Z,64.08
2023-04-17T10:27:08.743Z,63.82
2023-04-17T10:29:35.125Z,64.03
2023-04-17T10:32:01.799Z,63.57
2023-04-17T10:34:28.238Z,63.76
2023-04-17T10:36:54.861Z,64.04
2023-04-17T10:39:21.206Z,64.44
2023-04-17T10:41:47.649Z,64.27
2023-04-17T10:44:14.112Z,64.05
2023-04-17T10:46:40.650Z,63.44
2023-04-17T10:49:06.990Z,63.86
2023-04-17T10:51:33.354Z,64.06
2023-04-17T10:53:59.657Z,63.86
2023-04-17T10:56:26.178Z,64.40
2023-04-17T10:58:52.683Z,64.40
2023-04-17T11:01:19.140Z,64.59
2023-04-17T11:03:46.351Z,64.63
2023-04-17T11:06:12.973Z,64.71
2023-04-17T11:08:39.496Z,64.67
2023-04-17T11:11:05.785Z,64.71
2023-04-17T11:13:32.281Z,64.77
2023-04-17T11:15:58.558Z,64.54
2023-04-17T11:18:25.375Z,64.87
2023-04-17T11:20:51.663Z,65.04
2023-04-17T11:23:18.010Z,65.04
2023-04-17T11:25:45.067Z,65.09
2023-04-17T11:28:12.408Z,65.13
2023-04-17T11:30:38.752Z,65.32
2023-04-17T11:33:05.279Z,65.25
2023-04-17T11:35:32.284Z,65.12
2023-04-17T11:37:58.611Z,65.17
2023-04-17T11:40:25.248Z,65.33
2023-04-17T11:42:51.531Z,65.39
2023-04-17T11:45:18.016Z,65.20
2023-04-17T11:47:44.488Z,65.36
2023-04-17T11:50:10.919Z,65.25
2023-04-17T11:52:37.297Z,65.49
2023-04-17T11:55:03.681Z,65.44
2023-04-17T11:57:30.453Z,65.44
2023-04-17T11:59:57.076Z,65.06
2023-04-17T12:02:23.619Z,65.35
2023-04-17T12:04:50.162Z,65.01
2023-04-17T12:07:17.696Z,65.37
2023-04-17T12:09:44.039Z,65.14
2023-04-17T12:12:10.540Z,65.06
2023-04-17T12:14:36.979Z,64.97
2023-04-17T12:17:03.300Z,65.27
2023-04-17T12:19:30.051Z,65.12
2023-04-17T12:21:56.666Z,65.31
2023-04-17T12:24:23.583Z,65.35
2023-04-17T12:26:50.368Z,65.19
2023-04-17T12:29:16.743Z,65.25
2023-04-17T12:31:43.381Z,65.37
2023-04-17T12:34:10.326Z,65.12
2023-04-17T12:36:36.890Z,65.31
2023-04-17T12:39:03.298Z,65.08
2023-04-17T12:41:29.664Z,65.04
2023-04-17T12:43:55.988Z,65.02
2023-04-17T12:46:22.764Z,65.27
2023-04-17T12:48:49.197Z,64.71
2023-04-17T12:51:15.555Z,65.19
2023-04-17T12:53:42.582Z,65.04
2023-04-17T12:56:09.140Z,65.10
2023-04-17T12:58:35.545Z,64.92
2023-04-17T13:01:01.992Z,65.06
2023-04-17T13:03:28.797Z,65.09
2023-04-17T13:05:55.277Z,65.14
2023-04-17T13:08:21.688Z,65.29
2023-04-17T13:10:48.518Z,65.35
2023-04-17T13:13:15.417Z,65.27
2023-04-17T13:15:41.814Z,65.37
2023-04-17T13:18:08.486Z,65.12
2023-04-17T13:20:35.718Z,65.32
2023-04-17T13:23:02.149Z,65.34
2023-04-17T13:25:28.983Z,65.13
2023-04-17T13:27:55.360Z,65.12
2023-04-17T13:30:21.766Z,65.34
2023-04-17T13:32:48.317Z,65.21
2023-04-17T13:35:15.096Z,65.30
2023-04-17T13:37:41.423Z,65.03
2023-04-17T13:40:08.119Z,65.24
2023-04-17T13:42:34.707Z,65.19
2023-04-17T13:45:01.108Z,65.35
2023-04-17T13:47:27.684Z,65.00
2023-04-17T13:49:54.184Z,65.24
2023-04-17T13:52:20.578Z,65.39
2023-04-17T13:54:47.233Z,65.17
2023-04-17T13:57:13.994Z,65.41
2023-04-17T13:59:40.382Z,65.05
2023-04-17T14:02:06.836Z,65.47
2023-04-17T14:04:33.422Z,65.06
2023-04-17T14:06:59.863Z,64.89
2023-04-17T14:09:26.208Z,65.39
2023-04-17T14:11:52.799Z,65.31
2023-04-17T14:14:19.175Z,65.18
2023-04-17T14:16:45.494Z,65.37
2023-04-17T14:19:14.797Z,65.43
2023-04-17T14:21:41.721Z,65.09
2023-04-17T14:24:08.176Z,64.94
2023-04-17T14:26:34.565Z,65.38
2023-04-17T14:29:01.051Z,65.48
2023-04-17T14:31:27.626Z,65.43
2023-04-17T14:33:54.012Z,65.31
2023-04-17T14:36:20.398Z,64.94
2023-04-17T14:38:47.117Z,64.99
2023-04-17T14:41:13.776Z,65.23
2023-04-17T14:43:40.115Z,65.07
2023-04-17T14:46:06.637Z,66.43
2023-04-17T14:48:38.384Z,64.84
2023-04-17T14:51:14.471Z,64.92
2023-04-17T14:53:40.978Z,64.94
2023-04-17T14:56:07.405Z,65.60
2023-04-17T14:58:33.951Z,65.12
2023-04-17T15:01:00.669Z,64.94
2023-04-17T15:03:27.419Z,65.05
2023-04-17T15:05:53.979Z,65.32
2023-04-17T15:08:20.375Z,65.30
2023-04-17T15:10:51.168Z,65.17
2023-04-17T15:13:18.277Z,64.84
2023-04-17T15:15:44.825Z,65.23
2023-04-17T15:18:11.276Z,65.12
2023-04-17T15:20:37.610Z,65.20
2023-04-17T15:23:04.202Z,65.17
2023-04-17T15:25:30.540Z,64.93
2023-04-17T15:27:56.821Z,65.06
2023-04-17T15:30:23.873Z,64.56
2023-04-17T15:32:50.908Z,65.16
2023-04-17T15:35:17.242Z,65.08
2023-04-17T15:37:43.624Z,65.09
2023-04-17T15:40:10.201Z,64.71
2023-04-17T15:42:36.638Z,64.86
2023-04-17T15:45:03.259Z,64.90
2023-04-17T15:47:29.921Z,64.74
2023-04-17T15:49:56.189Z,64.79
2023-04-17T15:52:22.945Z,64.51
2023-04-17T15:54:49.436Z,64.45
2023-04-17T15:57:15.855Z,64.40
2023-04-17T15:59:42.269Z,64.53
2023-04-17T16:02:08.666Z,64.64
2023-04-17T16:04:35.164Z,64.40
2023-04-17T16:07:01.747Z,64.80
2023-04-17T16:09:28.309Z,64.24
2023-04-17T16:11:55.357Z,64.52
2023-04-17T16:14:21.821Z,64.36
2023-04-17T16:16:48.376Z,64.20
2023-04-17T16:19:15.231Z,64.21
2023-04-17T16:21:41.595Z,64.20
2023-04-17T16:24:07.991Z,64.46
2023-04-17T16:26:34.503Z,64.26
2023-04-17T16:29:00.939Z,64.56
2023-04-17T16:31:27.343Z,64.41
2023-04-17T16:33:54.150Z,63.95
2023-04-17T16:36:21.268Z,64.33
2023-04-17T16:38:48.043Z,64.61
2023-04-17T16:41:14.538Z,64.12
2023-04-17T16:43:41.377Z,64.47
2023-04-17T16:46:18.374Z,64.56
2023-04-17T16:48:47.937Z,64.68
2023-04-17T16:51:14.383Z,64.78
2023-04-17T16:53:40.856Z,64.17
2023-04-17T16:56:07.593Z,64.61
2023-04-17T16:58:33.964Z,64.40
2023-04-17T17:01:00.665Z,64.61
2023-04-17T17:03:27.736Z,64.00
2023-04-17T17:05:54.298Z,64.16
2023-04-17T17:08:20.618Z,64.32
2023-04-17T17:10:47.271Z,64.19
2023-04-17T17:13:13.740Z,64.39
2023-04-17T17:15:40.152Z,64.42
2023-04-17T17:18:06.636Z,64.50
2023-04-17T17:20:33.227Z,64.24
2023-04-17T17:22:59.658Z,64.13
2023-04-17T17:25:26.028Z,64.69
2023-04-17T17:27:52.901Z,64.28
2023-04-17T17:30:19.227Z,64.78
2023-04-17T17:32:45.731Z,64.87
2023-04-17T17:35:12.504Z,64.18
2023-04-17T17:37:38.863Z,64.49
2023-04-17T17:40:05.190Z,64.80
2023-04-17T17:42:31.597Z,64.50
2023-04-17T17:44:57.901Z,64.84
2023-04-17T17:47:24.632Z,64.68
2023-04-17T17:49:51.396Z,64.65
2023-04-17T17:52:17.698Z,64.68
2023-04-17T17:54:44.221Z,64.57
2023-04-17T17:57:10.589Z,64.67
2023-04-17T17:59:37.278Z,64.93
2023-04-17T18:02:04.015Z,64.63
2023-04-17T18:04:30.822Z,64.29
2023-04-17T18:06:57.450Z,64.59
2023-04-17T18:09:23.778Z,64.54
2023-04-17T18:11:50.418Z,64.57
2023-04-17T18:14:16.852Z,64.53
2023-04-17T18:16:43.832Z,64.30
2023-04-17T18:19:10.455Z,64.76
2023-04-17T18:21:36.910Z,64.34
2023-04-17T18:24:03.269Z,64.43
2023-04-17T18:26:29.838Z,63.96
2023-04-17T18:28:56.207Z,64.08
2023-04-17T18:31:23.046Z,64.07
2023-04-17T18:33:49.853Z,64.23
2023-04-17T18:36:16.562Z,64.25
2023-04-17T18:38:43.854Z,64.32
2023-04-17T18:41:10.362Z,64.72
2023-04-17T18:43:37.030Z,64.60
2023-04-17T18:46:04.263Z,64.45
2023-04-17T18:48:30.595Z,64.15
2023-04-17T18:50:56.965Z,64.55
2023-04-17T18:53:23.392Z,64.69
2023-04-17T18:55:50.035Z,64.32
2023-04-17T18:58:16.638Z,64.61
2023-04-17T19:00:43.182Z,64.48
2023-04-17T19:03:09.629Z,64.55
2023-04-17T19:05:36.122Z,64.58
2023-04-17T19:08:02.598Z,64.56
2023-04-17T19:10:29.288Z,64.29
2023-04-17T19:12:55.691Z,64.53
2023-04-17T19:15:22.164Z,64.58
2023-04-17T19:17:48.914Z,63.93
2023-04-17T19:20:15.441Z,64.37
2023-04-17T19:22:42.096Z,64.22
2023-04-17T19:25:08.769Z,64.23
2023-04-17T19:27:35.341Z,64.07
2023-04-17T19:30:01.888Z,64.54
2023-04-17T19:32:30.490Z,64.54
2023-04-17T19:34:58.120Z,64.38
2023-04-17T19:37:24.963Z,64.40
2023-04-17T19:39:56.100Z,64.31
2023-04-17T19:42:23.372Z,64.21
2023-04-17T19:44:49.731Z,64.50
2023-04-17T19:47:16.101Z,64.20
2023-04-17T19:49:42.486Z,64.27
2023-04-17T19:52:09.148Z,64.10
2023-04-17T19:54:35.553Z,64.21
2023-04-17T19:57:01.994Z,64.55
2023-04-17T19:59:28.347Z,64.35
2023-04-17T20:01:54.812Z,64.60
2023-04-17T20:04:21.644Z,64.01
2023-04-17T20:06:48.065Z,64.42
2023-04-17T20:09:15.097Z,64.30
2023-04-17T20:11:41.543Z,64.49
2023-04-17T20:14:07.932Z,63.87
2023-04-17T20:16:34.294Z,64.17
2023-04-17T20:19:01.058Z,64.20
2023-04-17T20:21:27.415Z,64.10
2023-04-17T20:23:54.092Z,64.09
2023-04-17T20:26:20.716Z,64.02
2023-04-17T20:28:47.200Z,63.86
2023-04-17T20:31:13.715Z,63.94
2023-04-17T20:33:40.169Z,63.61
2023-04-17T20:36:06.684Z,63.76
2023-04-17T20:38:33.114Z,64.13
2023-04-17T20:40:59.541Z,63.89
2023-04-17T20:43:26.192Z,63.63
2023-04-17T20:45:52.689Z,63.69
2023-04-17T20:48:19.306Z,64.02
2023-04-17T20:50:46.153Z,63.63
2023-04-17T20:53:12.430Z,63.84
2023-04-17T20:55:38.974Z,63.74
2023-04-17T20:58:05.442Z,63.63
2023-04-17T21:00:31.810Z,63.66
2023-04-17T21:02:58.278Z,63.58
2023-04-17T21:05:25.401Z,63.96
2023-04-17T21:07:51.869Z,63.64
2023-04-17T21:10:18.200Z,64.03
2023-04-17T21:12:45.135Z,64.07
2023-04-17T21:15:11.532Z,63.89
2023-04-17T21:17:38.575Z,63.73
2023-04-17T21:20:05.499Z,64.11
2023-04-17T21:22:31.911Z,63.71
2023-04-17T21:24:59.008Z,63.91
2023-04-17T21:27:25.431Z,64.08
2023-04-17T21:29:52.128Z,63.61
2023-04-17T21:32:18.757Z,63.57
2023-04-17T21:34:45.617Z,63.41
2023-04-17T21:37:12.078Z,63.54
2023-04-17T21:39:38.929Z,63.49
2023-04-17T21:42:05.669Z,63.18
2023-04-17T21:44:32.095Z,63.66
2023-04-17T21:46:58.947Z,63.31
2023-04-17T21:49:25.376Z,63.57
2023-04-17T21:51:51.761Z,63.51
2023-04-17T21:54:18.103Z,63.32
2023-04-17T21:56:44.819Z,63.32
2023-04-17T21:59:11.742Z,63.48
2023-04-17T22:01:38.219Z,63.45
2023-04-17T22:04:04.806Z,63.29
2023-04-17T22:06:31.186Z,63.22
2023-04-17T22:08:58.031Z,63.44
2023-04-17T22:11:24.429Z,63.49
2023-04-17T22:13:50.927Z,63.36
2023-04-17T22:16:17.331Z,63.39
2023-04-17T22:18:43.733Z,63.35
2023-04-17T22:21:10.113Z,63.18
2023-04-17T22:23:36.518Z,63.08
2023-04-17T22:26:03.027Z,63.21
2023-04-17T22:28:29.434Z,63.37
2023-04-17T22:30:55.832Z,63.16
2023-04-17T22:33:22.159Z,63.15
2023-04-17T22:35:48.919Z,63.21
2023-04-17T22:38:15.325Z,63.44
2023-04-17T22:40:41.741Z,63.10
2023-04-17T22:43:08.246Z,63.25
2023-04-17T22:45:34.770Z,63.11
2023-04-17T22:48:01.207Z,63.17
2023-04-17T22:50:27.749Z,62.92
2023-04-17T22:52:54.115Z,62.73
2023-04-17T22:55:20.751Z,63.18
2023-04-17T22:57:47.256Z,62.93
2023-04-17T23:00:13.860Z,63.05
2023-04-17T23:02:40.592Z,63.01
2023-04-17T23:05:07.288Z,62.95
2023-04-17T23:07:33.680Z,63.06
2023-04-17T23:10:00.151Z,62.92
2023-04-17T23:12:27.030Z,62.89
2023-04-17T23:14:53.370Z,62.99
2023-04-17T23:17:19.961Z,63.01
2023-04-17T23:19:46.331Z,63.21
2023-04-17T23:22:12.753Z,63.34
2023-04-17T23:24:39.135Z,62.85
2023-04-17T23:27:05.654Z,63.21
2023-04-17T23:29:32.110Z,62.83
2023-04-17T23:31:58.554Z,62.84
2023-04-17T23:34:25.056Z,63.12
2023-04-17T23:36:51.410Z,63.02
2023-04-17T23:39:17.764Z,62.86
2023-04-17T23:41:44.505Z,62.98
2023-04-17T23:44:11.162Z,62.95
2023-04-17T23:46:37.975Z,63.03
2023-04-17T23:49:04.311Z,62.87
2023-04-17T23:51:30.795Z,62.90
2023-04-17T23:53:57.620Z,62.92
2023-04-17T23:56:24.169Z,62.79
2023-04-17T23:58:50.488Z,63.03
